createdAt,value
2022-09-25T00:01:00.492Z,12.40
2022-09-25T00:03:28.865Z,12.30
2022-09-25T00:06:06.802Z,12.25
2022-09-25T00:08:34.524Z,12.24
2022-09-25T00:11:06.698Z,12.25
2022-09-25T00:13:34.061Z,12.28
2022-09-25T00:16:01.023Z,12.22
2022-09-25T00:18:46.541Z,12.28
2022-09-25T00:21:14.889Z,12.23
2022-09-25T00:23:44.816Z,12.18
2022-09-25T00:26:13.628Z,12.12
2022-09-25T00:28:41.146Z,12.07
2022-09-25T00:31:10.004Z,12.09
2022-09-25T00:33:37.378Z,12.08
2022-09-25T00:36:06.920Z,12.05
2022-09-25T00:38:35.518Z,12.05
2022-09-25T00:41:04.762Z,12.06
2022-09-25T00:43:41.845Z,12.12
2022-09-25T00:46:31.547Z,12.09
2022-09-25T00:49:03.557Z,12.14
2022-09-25T00:51:55.066Z,12.22
2022-09-25T00:54:27.494Z,12.17
2022-09-25T00:56:58.000Z,12.17
2022-09-25T00:59:29.741Z,12.16
2022-09-25T01:01:57.153Z,12.20
2022-09-25T01:04:26.452Z,12.33
2022-09-25T01:06:53.964Z,12.28
2022-09-25T01:09:20.853Z,12.31
2022-09-25T01:11:47.880Z,12.23
2022-09-25T01:14:17.417Z,12.24
2022-09-25T01:16:53.984Z,12.23
2022-09-25T01:19:33.023Z,12.38
2022-09-25T01:22:16.064Z,12.34
2022-09-25T01:24:54.381Z,12.29
2022-09-25T01:27:23.824Z,12.32
2022-09-25T01:30:03.452Z,12.29
2022-09-25T01:32:51.674Z,12.26
2022-09-25T01:35:50.355Z,12.23
2022-09-25T01:38:43.177Z,12.18
2022-09-25T01:41:21.738Z,12.25
2022-09-25T01:43:52.513Z,12.22
2022-09-25T01:46:28.061Z,12.14
2022-09-25T01:49:00.505Z,12.09
2022-09-25T01:51:32.321Z,12.06
2022-09-25T01:54:04.646Z,12.04
2022-09-25T01:56:36.940Z,12.01
2022-09-25T01:59:13.506Z,12.04
2022-09-25T02:01:42.572Z,12.04
2022-09-25T02:04:18.729Z,12.01
2022-09-25T02:06:49.218Z,11.93
2022-09-25T02:09:37.589Z,11.94
2022-09-25T02:12:12.809Z,11.91
2022-09-25T02:14:48.851Z,11.98
2022-09-25T02:17:41.853Z,11.94
2022-09-25T02:20:28.349Z,11.88
2022-09-25T02:22:58.645Z,11.85
2022-09-25T02:25:40.314Z,11.85
2022-09-25T02:28:07.003Z,11.88
2022-09-25T02:30:33.798Z,11.83
2022-09-25T02:33:00.950Z,11.82
2022-09-25T02:35:28.578Z,11.76
2022-09-25T02:37:57.319Z,11.71
2022-09-25T02:40:33.889Z,11.70
2022-09-25T02:43:20.630Z,11.69
2022-09-25T02:45:56.591Z,11.66
2022-09-25T02:48:38.885Z,11.64
2022-09-25T02:51:21.219Z,11.60
2022-09-25T02:53:53.937Z,11.59
2022-09-25T02:56:32.828Z,11.58
2022-09-25T02:59:06.803Z,11.56
2022-09-25T03:01:37.384Z,11.52
2022-09-25T03:04:06.048Z,11.52
2022-09-25T03:06:32.967Z,11.54
2022-09-25T03:09:02.236Z,11.47
2022-09-25T03:11:29.014Z,11.47
2022-09-25T03:14:05.981Z,11.48
2022-09-25T03:16:40.719Z,11.46
2022-09-25T03:19:07.784Z,11.48
2022-09-25T03:21:34.341Z,11.52
2022-09-25T03:24:01.083Z,11.49
2022-09-25T03:26:28.724Z,11.46
2022-09-25T03:28:56.224Z,11.44
2022-09-25T03:31:23.293Z,11.45
2022-09-25T03:33:50.141Z,11.43
2022-09-25T03:36:20.584Z,11.43
2022-09-25T03:38:49.253Z,11.39
2022-09-25T03:41:17.932Z,11.39
2022-09-25T03:43:44.506Z,11.35
2022-09-25T03:46:13.619Z,11.33
2022-09-25T03:48:41.139Z,11.29
2022-09-25T03:51:09.187Z,11.25
2022-09-25T03:53:36.668Z,11.21
2022-09-25T03:56:05.957Z,11.23
2022-09-25T03:58:33.098Z,11.20
2022-09-25T04:00:59.815Z,11.18
2022-09-25T04:03:30.501Z,11.17
2022-09-25T04:05:59.120Z,11.17
2022-09-25T04:08:27.087Z,11.15
2022-09-25T04:10:56.354Z,11.16
2022-09-25T04:13:23.941Z,11.15
2022-09-25T04:15:51.215Z,11.16
2022-09-25T04:18:18.915Z,11.16
2022-09-25T04:20:45.522Z,11.15
2022-09-25T04:23:12.113Z,11.10
2022-09-25T04:25:38.676Z,11.18
2022-09-25T04:28:07.324Z,11.12
2022-09-25T04:30:34.329Z,11.10
2022-09-25T04:33:19.452Z,11.11
2022-09-25T04:35:46.161Z,11.12
2022-09-25T04:38:12.777Z,11.06
2022-09-25T04:40:39.584Z,11.07
2022-09-25T04:43:07.250Z,11.05
2022-09-25T04:45:36.917Z,11.04
2022-09-25T04:48:05.154Z,11.05
2022-09-25T04:50:32.718Z,10.99
2022-09-25T04:53:00.310Z,10.92
2022-09-25T04:55:27.649Z,10.85
2022-09-25T04:57:59.104Z,10.80
2022-09-25T05:00:29.513Z,10.75
2022-09-25T05:02:56.796Z,10.74
2022-09-25T05:05:28.109Z,10.69
2022-09-25T05:07:59.937Z,10.66
2022-09-25T05:10:29.972Z,10.58
2022-09-25T05:12:58.897Z,10.58
2022-09-25T05:15:27.796Z,10.54
2022-09-25T05:18:02.330Z,10.54
2022-09-25T05:20:29.157Z,10.54
2022-09-25T05:22:59.568Z,10.55
2022-09-25T05:25:27.123Z,10.58
2022-09-25T05:27:57.751Z,10.61
2022-09-25T05:30:26.022Z,10.69
2022-09-25T05:32:53.513Z,10.76
2022-09-25T05:35:22.079Z,10.85
2022-09-25T05:37:48.712Z,10.98
2022-09-25T05:40:16.511Z,11.10
2022-09-25T05:42:44.526Z,11.25
2022-09-25T05:45:12.310Z,11.35
2022-09-25T05:47:39.736Z,11.44
2022-09-25T05:50:07.796Z,11.48
2022-09-25T05:52:34.485Z,11.57
2022-09-25T05:55:03.184Z,11.63
2022-09-25T05:57:34.334Z,11.71
2022-09-25T06:00:01.888Z,11.75
2022-09-25T06:02:28.493Z,11.74
2022-09-25T06:04:55.150Z,11.93
2022-09-25T06:07:21.827Z,12.09
2022-09-25T06:09:48.494Z,12.26
2022-09-25T06:12:15.062Z,12.32
2022-09-25T06:14:42.109Z,12.14
2022-09-25T06:17:08.898Z,12.23
2022-09-25T06:19:35.544Z,12.23
2022-09-25T06:22:02.129Z,12.37
2022-09-25T06:24:28.773Z,12.40
2022-09-25T06:26:55.739Z,12.24
2022-09-25T06:29:22.625Z,12.26
2022-09-25T06:31:50.069Z,12.28
2022-09-25T06:34:16.721Z,12.47
2022-09-25T06:36:43.274Z,12.49
2022-09-25T06:39:09.818Z,12.58
2022-09-25T06:41:36.867Z,12.62
2022-09-25T06:44:03.676Z,12.72
2022-09-25T06:46:30.462Z,12.86
2022-09-25T06:49:00.065Z,12.63
2022-09-25T06:51:32.431Z,12.57
2022-09-25T06:53:59.301Z,12.58
2022-09-25T06:56:26.395Z,12.51
2022-09-25T06:58:53.157Z,12.62
2022-09-25T07:01:19.846Z,12.59
2022-09-25T07:03:47.470Z,12.68
2022-09-25T07:06:20.236Z,12.75
2022-09-25T07:08:48.436Z,12.71
2022-09-25T07:11:18.345Z,12.77
2022-09-25T07:13:45.439Z,12.88
2022-09-25T07:16:14.843Z,12.95
2022-09-25T07:18:41.751Z,12.83
2022-09-25T07:21:12.003Z,12.94
2022-09-25T07:23:39.258Z,12.81
2022-09-25T07:26:22.333Z,12.98
2022-09-25T07:29:02.393Z,13.04
2022-09-25T07:31:31.923Z,13.05
2022-09-25T07:34:02.884Z,13.20
2022-09-25T07:36:29.889Z,13.27
2022-09-25T07:38:56.528Z,13.40
2022-09-25T07:41:23.954Z,13.29
2022-09-25T07:46:46.301Z,13.72
2022-09-25T07:49:13.580Z,13.59
2022-09-25T07:51:40.229Z,13.57
2022-09-25T07:54:07.438Z,13.67
2022-09-25T07:56:38.642Z,13.71
2022-09-25T07:59:05.424Z,13.96
2022-09-25T08:01:32.071Z,13.81
2022-09-25T08:03:58.678Z,13.92
2022-09-25T08:06:25.497Z,13.90
2022-09-25T08:08:52.061Z,14.07
2022-09-25T08:11:18.988Z,14.12
2022-09-25T08:13:46.449Z,14.08
2022-09-25T08:16:18.234Z,14.04
2022-09-25T08:18:46.977Z,14.01
2022-09-25T08:21:16.021Z,14.22
2022-09-25T08:23:48.054Z,14.15
2022-09-25T08:26:16.517Z,13.77
2022-09-25T08:28:44.186Z,14.08
2022-09-25T08:31:11.409Z,14.49
2022-09-25T08:33:38.124Z,14.60
2022-09-25T08:36:05.633Z,14.83
2022-09-25T08:38:33.402Z,14.90
2022-09-25T08:41:08.789Z,14.66
2022-09-25T08:43:42.114Z,14.86
2022-09-25T08:46:39.922Z,14.85
2022-09-25T08:49:10.222Z,14.86
2022-09-25T08:51:43.178Z,15.05
2022-09-25T08:54:18.787Z,15.22
2022-09-25T08:56:48.762Z,15.36
2022-09-25T08:59:47.481Z,15.21
2022-09-25T09:02:20.505Z,15.02
2022-09-25T09:04:56.452Z,15.27
2022-09-25T09:07:31.767Z,15.38
2022-09-25T09:10:13.577Z,15.38
2022-09-25T09:12:48.804Z,15.43
2022-09-25T09:15:26.001Z,15.37
2022-09-25T09:17:53.850Z,15.30
2022-09-25T09:20:29.350Z,15.56
2022-09-25T09:22:57.689Z,15.70
2022-09-25T09:25:33.225Z,15.82
2022-09-25T09:28:25.051Z,15.52
2022-09-25T09:31:35.238Z,16.02
2022-09-25T09:34:52.960Z,16.26
2022-09-25T09:37:31.733Z,16.25
2022-09-25T09:40:07.409Z,16.30
2022-09-25T09:42:54.211Z,16.50
2022-09-25T09:45:34.582Z,16.44
2022-09-25T09:48:09.994Z,16.57
2022-09-25T09:50:52.896Z,16.82
2022-09-25T09:53:19.945Z,16.78
2022-09-25T09:55:50.729Z,16.81
2022-09-25T09:58:27.095Z,16.33
2022-09-25T10:00:54.000Z,16.41
2022-09-25T10:03:30.583Z,16.78
2022-09-25T10:06:01.814Z,16.41
2022-09-25T10:08:29.077Z,16.49
2022-09-25T10:10:55.952Z,16.64
2022-09-25T10:13:38.436Z,16.50
2022-09-25T10:16:08.622Z,16.18
2022-09-25T10:18:41.020Z,16.24
2022-09-25T10:21:15.165Z,16.65
2022-09-25T10:23:50.125Z,16.59
2022-09-25T10:26:30.122Z,16.70
2022-09-25T10:28:59.135Z,16.85
2022-09-25T10:31:30.523Z,16.86
2022-09-25T10:34:22.347Z,16.70
2022-09-25T10:36:54.055Z,16.71
2022-09-25T10:39:49.488Z,16.76
2022-09-25T10:42:34.438Z,16.77
2022-09-25T10:45:26.635Z,16.58
2022-09-25T10:48:12.097Z,17.09
2022-09-25T10:50:38.696Z,17.14
2022-09-25T10:53:07.494Z,17.21
2022-09-25T10:55:46.399Z,17.41
2022-09-25T10:58:33.246Z,17.54
2022-09-25T11:01:02.224Z,17.88
2022-09-25T11:03:41.058Z,18.08
2022-09-25T11:06:22.109Z,18.23
2022-09-25T11:09:00.874Z,18.30
2022-09-25T11:11:27.629Z,18.52
2022-09-25T11:14:00.302Z,18.39
2022-09-25T11:17:06.097Z,19.03
2022-09-25T11:19:35.751Z,19.77
2022-09-25T11:22:12.610Z,19.90
2022-09-25T11:24:48.352Z,20.11
2022-09-25T11:27:24.124Z,19.99
2022-09-25T11:30:03.393Z,20.01
2022-09-25T11:32:52.828Z,20.10
2022-09-25T11:35:25.398Z,20.36
2022-09-25T11:38:19.609Z,20.47
2022-09-25T11:41:16.085Z,20.51
2022-09-25T11:44:01.061Z,20.48
2022-09-25T11:46:40.823Z,20.25
2022-09-25T11:49:27.796Z,19.78
2022-09-25T11:52:29.790Z,19.27
2022-09-25T11:55:11.566Z,19.18
2022-09-25T11:57:49.773Z,18.88
2022-09-25T12:00:21.390Z,18.56
2022-09-25T12:02:56.842Z,18.94
2022-09-25T12:05:48.119Z,19.53
2022-09-25T12:08:22.485Z,20.08
2022-09-25T12:11:11.763Z,20.05
2022-09-25T12:14:01.420Z,20.21
2022-09-25T12:16:46.410Z,19.95
2022-09-25T12:19:45.623Z,19.54
2022-09-25T12:22:39.694Z,19.84
2022-09-25T12:25:33.375Z,20.32
2022-09-25T12:28:41.988Z,20.63
2022-09-25T12:31:23.662Z,20.51
2022-09-25T12:34:19.316Z,20.52
2022-09-25T12:36:52.786Z,19.89
2022-09-25T12:39:34.318Z,19.89
2022-09-25T12:42:04.910Z,19.47
2022-09-25T12:44:58.209Z,19.53
2022-09-25T12:47:24.794Z,19.47
2022-09-25T12:50:01.602Z,19.08
2022-09-25T12:52:45.022Z,19.04
2022-09-25T12:55:23.823Z,19.33
2022-09-25T12:58:21.358Z,19.20
2022-09-25T13:00:58.138Z,19.13
2022-09-25T13:03:46.869Z,19.30
2022-09-25T13:06:36.986Z,19.19
2022-09-25T13:09:33.864Z,19.20
2022-09-25T13:12:15.299Z,19.33
2022-09-25T13:14:52.268Z,19.64
2022-09-25T13:17:18.994Z,19.84
2022-09-25T13:19:46.048Z,20.29
2022-09-25T13:22:22.364Z,20.02
2022-09-25T13:25:15.730Z,20.01
2022-09-25T13:27:45.866Z,20.09
2022-09-25T13:30:25.264Z,20.01
2022-09-25T13:32:54.005Z,19.82
2022-09-25T13:35:23.218Z,19.41
2022-09-25T13:37:52.126Z,19.28
2022-09-25T13:40:40.123Z,19.27
2022-09-25T13:43:38.480Z,19.27
2022-09-25T13:46:21.768Z,18.90
2022-09-25T13:48:48.825Z,18.30
2022-09-25T13:51:18.502Z,18.33
2022-09-25T13:53:59.175Z,18.64
2022-09-25T13:56:40.702Z,18.44
2022-09-25T13:59:10.748Z,18.67
2022-09-25T14:01:43.559Z,18.58
2022-09-25T14:04:10.333Z,18.70
2022-09-25T14:06:39.436Z,18.92
2022-09-25T14:09:10.594Z,18.97
2022-09-25T14:11:38.531Z,18.74
2022-09-25T14:14:10.069Z,18.86
2022-09-25T14:16:50.337Z,19.07
2022-09-25T14:19:21.278Z,19.20
2022-09-25T14:21:48.827Z,19.17
2022-09-25T14:24:29.119Z,19.01
2022-09-25T14:27:01.276Z,18.88
2022-09-25T14:29:38.638Z,18.42
2022-09-25T14:32:42.914Z,18.30
2022-09-25T14:35:35.401Z,18.53
2022-09-25T14:38:13.569Z,18.47
2022-09-25T14:40:40.160Z,18.49
2022-09-25T14:43:13.363Z,18.59
2022-09-25T14:46:07.629Z,18.48
2022-09-25T14:48:43.327Z,18.42
2022-09-25T14:51:16.158Z,18.14
2022-09-25T14:53:47.578Z,18.24
2022-09-25T14:56:15.281Z,18.03
2022-09-25T14:58:49.595Z,17.97
2022-09-25T15:01:29.660Z,17.77
2022-09-25T15:04:09.083Z,17.96
2022-09-25T15:06:39.281Z,17.88
2022-09-25T15:09:30.630Z,17.81
2022-09-25T15:11:57.333Z,17.82
2022-09-25T15:14:23.929Z,17.69
2022-09-25T15:17:09.802Z,17.53
2022-09-25T15:19:45.916Z,17.40
2022-09-25T15:22:18.818Z,17.34
2022-09-25T15:24:54.233Z,17.19
2022-09-25T15:27:22.727Z,17.22
2022-09-25T15:29:50.464Z,17.50
2022-09-25T15:32:17.193Z,17.41
2022-09-25T15:34:44.209Z,17.30
2022-09-25T15:37:18.176Z,17.46
2022-09-25T15:39:44.995Z,17.37
2022-09-25T15:42:15.230Z,17.36
2022-09-25T15:44:42.257Z,17.54
2022-09-25T15:47:29.081Z,17.42
2022-09-25T15:49:58.294Z,17.33
2022-09-25T15:52:34.741Z,17.53
2022-09-25T15:55:14.654Z,17.47
2022-09-25T15:57:42.134Z,17.23
2022-09-25T16:00:36.640Z,17.22
2022-09-25T16:03:34.689Z,16.97
2022-09-25T16:06:03.429Z,17.03
2022-09-25T16:08:36.309Z,16.94
2022-09-25T16:11:16.190Z,16.66
2022-09-25T16:13:46.446Z,16.72
2022-09-25T16:16:23.716Z,16.43
2022-09-25T16:18:54.127Z,16.49
2022-09-25T16:21:26.979Z,16.39
2022-09-25T16:24:10.132Z,16.13
2022-09-25T16:26:40.225Z,15.97
2022-09-25T16:29:12.964Z,16.04
2022-09-25T16:31:45.139Z,15.96
2022-09-25T16:34:39.026Z,15.84
2022-09-25T16:37:17.846Z,15.69
2022-09-25T16:39:44.692Z,15.57
2022-09-25T16:42:39.526Z,15.67
2022-09-25T16:45:17.728Z,15.48
2022-09-25T16:47:49.218Z,15.45
2022-09-25T16:50:17.429Z,15.38
2022-09-25T16:52:44.848Z,15.31
2022-09-25T16:55:18.635Z,15.34
2022-09-25T16:57:46.384Z,15.27
2022-09-25T17:00:23.618Z,15.27
2022-09-25T17:02:51.159Z,15.31
2022-09-25T17:05:26.940Z,15.30
2022-09-25T17:07:56.350Z,15.22
2022-09-25T17:10:29.343Z,15.12
2022-09-25T17:12:59.283Z,15.07
2022-09-25T17:15:36.287Z,14.98
2022-09-25T17:18:07.175Z,14.91
2022-09-25T17:20:35.156Z,14.86
2022-09-25T17:23:02.087Z,14.80
2022-09-25T17:25:45.728Z,14.72
2022-09-25T17:28:13.243Z,14.62
2022-09-25T17:30:40.902Z,14.53
2022-09-25T17:33:17.949Z,14.46
2022-09-25T17:35:55.482Z,14.39
2022-09-25T17:38:22.176Z,14.35
2022-09-25T17:40:52.527Z,14.30
2022-09-25T17:43:19.736Z,14.29
2022-09-25T17:45:51.187Z,14.28
2022-09-25T17:48:24.312Z,14.28
2022-09-25T17:50:52.868Z,14.28
2022-09-25T17:53:21.847Z,14.32
2022-09-25T17:55:53.430Z,14.31
2022-09-25T17:58:22.204Z,14.28
2022-09-25T18:00:49.577Z,14.21
2022-09-25T18:03:16.852Z,14.31
2022-09-25T18:05:44.999Z,14.30
2022-09-25T18:08:12.584Z,14.37
2022-09-25T18:10:39.449Z,14.33
2022-09-25T18:13:10.497Z,14.31
2022-09-25T18:15:48.661Z,14.36
2022-09-25T18:18:15.710Z,14.35
2022-09-25T18:21:04.542Z,14.59
2022-09-25T18:23:35.140Z,14.49
2022-09-25T18:26:04.004Z,14.52
2022-09-25T18:28:31.252Z,14.47
2022-09-25T18:30:58.625Z,14.43
2022-09-25T18:33:25.439Z,14.32
2022-09-25T18:35:52.930Z,14.34
2022-09-25T18:38:19.735Z,14.32
2022-09-25T18:40:46.410Z,14.16
2022-09-25T18:43:13.151Z,14.29
2022-09-25T18:45:41.955Z,14.11
2022-09-25T18:48:08.553Z,14.01
2022-09-25T18:50:35.298Z,14.09
2022-09-25T18:53:01.949Z,14.04
2022-09-25T18:55:28.529Z,13.94
2022-09-25T18:57:55.266Z,14.26
2022-09-25T19:00:22.187Z,14.04
2022-09-25T19:02:48.883Z,14.10
2022-09-25T19:05:17.196Z,14.10
2022-09-25T19:07:43.795Z,13.98
2022-09-25T19:10:10.944Z,13.90
2022-09-25T19:12:37.558Z,13.71
2022-09-25T19:15:05.333Z,13.65
2022-09-25T19:17:32.176Z,13.66
2022-09-25T19:19:59.085Z,13.63
2022-09-25T19:22:25.837Z,13.59
2022-09-25T19:24:55.457Z,13.53
2022-09-25T19:27:22.449Z,13.50
2022-09-25T19:29:49.060Z,13.43
2022-09-25T19:32:17.381Z,13.42
2022-09-25T19:34:44.497Z,13.42
2022-09-25T19:37:11.463Z,13.39
2022-09-25T19:39:56.718Z,13.50
2022-09-25T19:42:24.244Z,13.39
2022-09-25T19:44:50.818Z,13.50
2022-09-25T19:47:17.405Z,13.44
2022-09-25T19:49:44.002Z,13.34
2022-09-25T19:52:10.985Z,13.26
2022-09-25T19:54:39.327Z,13.39
2022-09-25T19:57:07.988Z,13.36
2022-09-25T19:59:35.574Z,13.26
2022-09-25T20:02:02.650Z,13.34
2022-09-25T20:04:29.658Z,13.20
2022-09-25T20:06:58.718Z,13.23
2022-09-25T20:09:26.284Z,13.27
2022-09-25T20:11:53.338Z,13.18
2022-09-25T20:14:25.409Z,13.28
2022-09-25T20:16:54.040Z,13.25
2022-09-25T20:19:21.204Z,13.21
2022-09-25T20:21:48.754Z,13.34
2022-09-25T20:24:15.587Z,13.14
2022-09-25T20:26:42.152Z,13.09
2022-09-25T20:29:14.681Z,13.34
2022-09-25T20:31:43.825Z,13.21
2022-09-25T20:34:16.596Z,13.15
2022-09-25T20:36:43.804Z,13.07
2022-09-25T20:39:10.633Z,13.20
2022-09-25T20:41:37.742Z,13.06
2022-09-25T20:44:05.279Z,13.01
2022-09-25T20:46:32.865Z,13.04
2022-09-25T20:49:00.645Z,13.05
2022-09-25T20:51:29.776Z,12.97
2022-09-25T20:54:06.797Z,12.93
2022-09-25T20:56:35.334Z,12.93
2022-09-25T20:59:03.240Z,12.91
2022-09-25T21:01:32.304Z,13.07
2022-09-25T21:04:00.834Z,13.18
2022-09-25T21:06:30.925Z,13.10
2022-09-25T21:09:03.322Z,12.93
2022-09-25T21:11:31.805Z,12.86
2022-09-25T21:14:00.616Z,12.78
2022-09-25T21:16:29.158Z,12.88
2022-09-25T21:19:01.710Z,12.88
2022-09-25T21:21:29.117Z,13.04
2022-09-25T21:23:57.387Z,12.85
2022-09-25T21:26:26.738Z,12.84
2022-09-25T21:28:55.916Z,12.80
2022-09-25T21:31:26.524Z,12.70
2022-09-25T21:33:57.657Z,12.66
2022-09-25T21:36:25.633Z,12.86
2022-09-25T21:38:52.580Z,12.71
2022-09-25T21:41:22.062Z,12.57
2022-09-25T21:43:52.439Z,12.56
2022-09-25T21:46:20.308Z,12.53
2022-09-25T21:48:52.683Z,12.40
2022-09-25T21:51:21.476Z,12.40
2022-09-25T21:53:48.698Z,12.36
2022-09-25T21:56:18.359Z,12.33
2022-09-25T21:58:46.291Z,12.27
2022-09-25T22:01:23.887Z,12.22
2022-09-25T22:03:55.372Z,12.06
2022-09-25T22:06:34.353Z,12.00
2022-09-25T22:09:08.204Z,11.94
2022-09-25T22:11:35.611Z,11.86
2022-09-25T22:14:02.239Z,11.82
2022-09-25T22:16:36.642Z,11.87
2022-09-25T22:19:08.094Z,11.81
2022-09-25T22:21:35.831Z,11.74
2022-09-25T22:24:02.763Z,11.73
2022-09-25T22:26:29.765Z,11.89
2022-09-25T22:28:57.290Z,11.98
2022-09-25T22:31:30.097Z,12.10
2022-09-25T22:33:59.956Z,12.09
2022-09-25T22:36:27.420Z,12.05
2022-09-25T22:38:54.727Z,12.02
2022-09-25T22:41:22.229Z,11.95
2022-09-25T22:43:54.286Z,12.00
2022-09-25T22:46:22.739Z,12.22
2022-09-25T22:48:49.749Z,12.23
2022-09-25T22:51:19.781Z,12.19
2022-09-25T22:53:47.081Z,12.06
2022-09-25T22:56:19.403Z,12.01
2022-09-25T22:58:49.919Z,12.02
2022-09-25T23:01:25.933Z,12.16
2022-09-25T23:03:57.793Z,12.19
2022-09-25T23:06:25.442Z,12.09
2022-09-25T23:08:57.786Z,12.09
2022-09-25T23:11:26.134Z,12.01
2022-09-25T23:14:03.269Z,11.91
2022-09-25T23:16:31.767Z,11.91
2022-09-25T23:18:59.352Z,11.89
2022-09-25T23:21:27.292Z,11.87
2022-09-25T23:24:10.460Z,12.02
2022-09-25T23:26:37.171Z,11.91
2022-09-25T23:29:04.068Z,11.93
2022-09-25T23:31:32.877Z,11.93
2022-09-25T23:34:01.204Z,11.90
2022-09-25T23:36:29.384Z,11.84
2022-09-25T23:38:59.482Z,11.90
2022-09-25T23:41:32.262Z,11.92
2022-09-25T23:44:00.838Z,11.79
2022-09-25T23:46:31.183Z,11.77
2022-09-25T23:48:59.142Z,11.88
2022-09-25T23:51:26.488Z,11.83
2022-09-25T23:53:54.744Z,11.86
2022-09-25T23:56:27.155Z,11.92
2022-09-25T23:58:56.445Z,11.87
